createdAt,value
2018-03-24T00:00:43.752Z,6.60
2018-03-24T00:03:10.079Z,6.60
2018-03-24T00:05:36.311Z,6.60
2018-03-24T00:08:02.543Z,6.60
2018-03-24T00:10:28.976Z,6.60
2018-03-24T00:12:55.275Z,6.70
2018-03-24T00:15:21.621Z,6.70
2018-03-24T00:17:47.880Z,6.60
2018-03-24T00:20:14.900Z,6.50
2018-03-24T00:22:41.163Z,6.40
2018-03-24T00:25:07.483Z,6.50
2018-03-24T00:27:33.754Z,6.60
2018-03-24T00:30:00.074Z,6.50
2018-03-24T00:32:27.164Z,6.40
2018-03-24T00:34:53.503Z,6.50
2018-03-24T00:37:19.855Z,6.40
2018-03-24T00:39:46.063Z,6.30
2018-03-24T00:42:12.370Z,6.40
2018-03-24T00:44:38.671Z,6.40
2018-03-24T00:47:04.913Z,6.50
2018-03-24T00:49:31.152Z,6.50
2018-03-24T00:51:57.396Z,6.60
2018-03-24T00:54:23.665Z,6.60
2018-03-24T00:56:50.715Z,6.50
2018-03-24T00:59:17.043Z,6.40
2018-03-24T01:01:43.251Z,6.40
2018-03-24T01:04:09.550Z,6.50
2018-03-24T01:06:35.850Z,6.50
2018-03-24T01:09:02.135Z,6.40
2018-03-24T01:11:28.369Z,6.40
2018-03-24T01:13:54.732Z,6.40
2018-03-24T01:16:21.751Z,6.20
2018-03-24T01:18:48.030Z,6.20
2018-03-24T01:21:14.336Z,6.10
2018-03-24T01:23:40.602Z,6.20
2018-03-24T01:26:06.922Z,6.10
2018-03-24T01:28:33.186Z,6.20
2018-03-24T01:30:59.522Z,6.30
2018-03-24T01:33:25.843Z,6.20
2018-03-24T01:35:52.104Z,6.20
2018-03-24T01:38:18.398Z,6.30
2018-03-24T01:40:45.405Z,6.30
2018-03-24T01:43:11.675Z,6.30
2018-03-24T01:45:37.994Z,6.30
2018-03-24T01:48:04.257Z,6.30
2018-03-24T01:50:30.611Z,6.30
2018-03-24T01:52:56.954Z,6.30
2018-03-24T01:55:23.263Z,6.20
2018-03-24T01:57:50.556Z,6.20
2018-03-24T02:00:16.787Z,6.20
2018-03-24T02:02:43.037Z,6.20
2018-03-24T02:48:49.451Z,5.30
2018-03-24T02:51:15.675Z,5.30
2018-03-24T02:53:41.968Z,5.40
2018-03-24T02:56:08.301Z,5.50
2018-03-24T02:58:34.665Z,5.70
2018-03-24T03:01:01.686Z,5.90
2018-03-24T03:03:28.157Z,5.80
2018-03-24T03:05:54.479Z,6.00
2018-03-24T03:08:20.741Z,6.10
2018-03-24T03:10:47.061Z,6.10
2018-03-24T03:13:13.372Z,6.10
2018-03-24T03:15:40.397Z,6.10
2018-03-24T03:18:06.751Z,6.10
2018-03-24T03:20:33.777Z,5.90
2018-03-24T03:23:00.904Z,5.80
2018-03-24T03:25:27.212Z,5.80
2018-03-24T03:27:53.555Z,5.80
2018-03-24T03:30:24.860Z,5.70
2018-03-24T03:32:51.159Z,5.70
2018-03-24T03:35:17.462Z,5.70
2018-03-24T03:37:43.697Z,5.70
2018-03-24T03:40:09.968Z,5.70
2018-03-24T03:42:36.234Z,5.70
2018-03-24T03:45:02.602Z,5.70
2018-03-24T03:47:29.649Z,5.90
2018-03-24T03:49:56.672Z,5.90
2018-03-24T03:52:23.005Z,5.80
2018-03-24T03:54:49.275Z,5.80
2018-03-24T03:57:15.628Z,5.70
2018-03-24T03:59:41.955Z,5.70
2018-03-24T04:02:08.207Z,5.70
2018-03-24T04:04:34.424Z,5.60
2018-03-24T05:25:56.988Z,5.60
2018-03-24T05:28:23.328Z,4.90
2018-03-24T05:30:49.542Z,4.90
2018-03-24T05:33:15.849Z,5.00
2018-03-24T05:35:57.794Z,5.30
2018-03-24T05:38:24.080Z,5.30
2018-03-24T05:40:50.432Z,5.40
2018-03-24T05:43:16.758Z,5.40
2018-03-24T05:45:42.980Z,5.40
2018-03-24T05:48:09.257Z,5.50
2018-03-24T05:50:35.562Z,5.50
2018-03-24T05:53:01.832Z,5.60
2018-03-24T05:55:28.111Z,5.70
2018-03-24T05:57:54.435Z,5.70
2018-03-24T06:00:20.773Z,5.70
2018-03-24T06:02:47.116Z,5.70
2018-03-24T06:05:13.419Z,5.70
2018-03-24T06:07:39.668Z,5.70
2018-03-24T06:10:05.919Z,5.70
2018-03-24T06:12:32.203Z,5.70
2018-03-24T06:14:59.224Z,5.70
2018-03-24T06:17:25.492Z,5.60
2018-03-24T06:19:51.831Z,5.60
2018-03-24T06:22:18.193Z,5.50
2018-03-24T06:24:44.499Z,5.60
2018-03-24T06:27:10.733Z,5.60
2018-03-24T06:29:37.018Z,5.60
2018-03-24T06:32:03.390Z,5.70
2018-03-24T06:34:44.602Z,5.70
2018-03-24T06:37:14.832Z,5.60
2018-03-24T06:39:41.112Z,5.70
2018-03-24T06:42:07.374Z,5.70
2018-03-24T06:44:33.695Z,5.80
2018-03-24T06:46:59.964Z,5.80
2018-03-24T06:49:26.309Z,5.90
2018-03-24T06:51:52.654Z,6.00
2018-03-24T06:54:18.972Z,6.00
2018-03-24T06:56:45.253Z,6.00
2018-03-24T06:59:11.476Z,6.10
2018-03-24T07:01:37.744Z,6.10
2018-03-24T07:04:04.759Z,6.10
2018-03-24T07:06:30.993Z,6.10
2018-03-24T07:08:57.280Z,6.10
2018-03-24T07:11:25.541Z,6.10
2018-03-24T07:13:51.820Z,6.10
2018-03-24T07:16:18.260Z,6.00
2018-03-24T07:18:44.559Z,6.00
2018-03-24T07:21:10.858Z,6.10
2018-03-24T07:23:37.899Z,6.20
2018-03-24T07:26:04.269Z,6.10
2018-03-24T07:28:41.613Z,6.20
2018-03-24T07:31:07.905Z,6.20
2018-03-24T07:33:34.949Z,6.30
2018-03-24T07:36:01.294Z,6.30
2018-03-24T07:38:27.520Z,6.40
2018-03-24T07:40:53.820Z,6.40
2018-03-24T07:43:20.142Z,6.40
2018-03-24T07:45:47.184Z,6.40
2018-03-24T07:48:13.424Z,6.40
2018-03-24T07:50:39.683Z,6.40
2018-03-24T07:53:06.026Z,6.50
2018-03-24T07:55:32.236Z,6.60
2018-03-24T07:57:58.502Z,6.70
2018-03-24T08:00:24.719Z,6.80
2018-03-24T08:02:59.589Z,6.80
2018-03-24T08:05:26.842Z,6.90
2018-03-24T08:07:53.926Z,7.10
2018-03-24T08:10:20.183Z,7.00
2018-03-24T08:12:47.225Z,7.10
2018-03-24T08:15:13.573Z,7.00
2018-03-24T08:17:39.946Z,7.20
2018-03-24T08:20:07.296Z,7.30
2018-03-24T08:22:34.368Z,7.50
2018-03-24T08:25:02.484Z,7.50
2018-03-24T08:27:28.769Z,7.50
2018-03-24T08:29:55.098Z,7.50
2018-03-24T08:32:21.470Z,7.50
2018-03-24T08:34:47.793Z,7.70
2018-03-24T08:37:14.055Z,7.70
2018-03-24T08:39:40.393Z,7.80
2018-03-24T08:42:06.769Z,7.90
2018-03-24T08:44:33.786Z,8.20
2018-03-24T08:47:00.055Z,8.20
2018-03-24T08:49:26.413Z,8.40
2018-03-24T08:51:52.752Z,8.40
2018-03-24T08:54:19.981Z,8.50
2018-03-24T08:56:46.226Z,8.60
2018-03-24T08:59:12.469Z,8.50
2018-03-24T09:01:38.737Z,8.70
2018-03-24T09:04:05.152Z,8.70
2018-03-24T09:06:31.450Z,8.70
2018-03-24T09:08:58.458Z,8.90
2018-03-24T09:11:26.771Z,8.90
2018-03-24T09:13:53.004Z,8.90
2018-03-24T09:16:19.306Z,9.10
2018-03-24T09:18:45.584Z,9.30
2018-03-24T09:21:12.106Z,9.50
2018-03-24T09:23:38.380Z,9.70
2018-03-24T09:26:04.667Z,9.80
2018-03-24T09:28:49.143Z,9.90
2018-03-24T09:31:15.500Z,9.90
2018-03-24T09:33:41.826Z,10.10
2018-03-24T09:36:08.884Z,10.40
2018-03-24T09:38:35.895Z,10.30
2018-03-24T09:41:02.168Z,10.30
2018-03-24T09:43:28.498Z,10.40
2018-03-24T09:45:54.735Z,10.40
2018-03-24T09:48:20.974Z,10.50
2018-03-24T09:50:47.988Z,10.30
2018-03-24T09:53:14.998Z,10.20
2018-03-24T09:55:41.255Z,10.20
2018-03-24T09:58:07.588Z,10.20
2018-03-24T10:00:33.877Z,10.30
2018-03-24T10:03:00.114Z,10.50
2018-03-24T10:05:27.118Z,10.80
2018-03-24T10:07:53.359Z,10.80
2018-03-24T10:10:19.628Z,10.90
2018-03-24T10:12:45.892Z,11.00
2018-03-24T10:15:12.129Z,11.00
2018-03-24T10:17:38.346Z,11.10
2018-03-24T10:20:04.654Z,11.20
2018-03-24T10:22:52.082Z,11.10
2018-03-24T10:25:18.326Z,11.20
2018-03-24T10:27:44.574Z,11.40
2018-03-24T10:30:10.859Z,11.40
2018-03-24T10:32:37.124Z,11.40
2018-03-24T10:35:05.249Z,11.60
2018-03-24T10:37:31.499Z,11.80
2018-03-24T10:39:57.731Z,11.70
2018-03-24T10:42:24.031Z,11.60
2018-03-24T10:44:50.267Z,11.70
2018-03-24T10:47:16.487Z,11.80
2018-03-24T10:49:42.724Z,11.80
2018-03-24T10:52:08.982Z,11.80
2018-03-24T10:54:35.215Z,11.90
2018-03-24T10:57:01.438Z,12.00
2018-03-24T10:59:27.687Z,12.00
2018-03-24T11:01:53.924Z,12.10
2018-03-24T11:04:20.179Z,12.10
2018-03-24T11:06:46.410Z,12.20
2018-03-24T11:09:12.683Z,12.30
2018-03-24T11:11:38.949Z,12.10
2018-03-24T11:14:05.198Z,12.20
2018-03-24T11:16:31.415Z,12.30
2018-03-24T11:18:57.656Z,12.40
2018-03-24T11:21:23.895Z,12.50
2018-03-24T11:23:50.154Z,12.50
2018-03-24T11:26:16.363Z,12.40
2018-03-24T11:28:42.607Z,12.40
2018-03-24T11:31:08.866Z,12.40
2018-03-24T11:33:35.099Z,12.70
2018-03-24T11:36:01.360Z,12.90
2018-03-24T11:38:29.068Z,12.90
2018-03-24T11:40:56.042Z,12.80
2018-03-24T11:43:23.075Z,12.70
2018-03-24T11:45:49.333Z,12.60
2018-03-24T11:48:16.339Z,12.70
2018-03-24T11:50:42.582Z,12.70
2018-03-24T11:53:08.834Z,12.60
2018-03-24T11:55:35.073Z,12.30
2018-03-24T11:58:01.305Z,12.20
2018-03-24T12:00:27.559Z,12.50
2018-03-24T12:02:53.779Z,12.60
2018-03-24T12:05:20.109Z,12.40
2018-03-24T12:07:47.094Z,12.50
2018-03-24T12:10:13.348Z,12.50
2018-03-24T12:12:39.577Z,12.50
2018-03-24T12:15:05.862Z,12.40
2018-03-24T12:17:32.140Z,12.30
2018-03-24T12:19:58.343Z,12.10
2018-03-24T12:22:25.287Z,12.10
2018-03-24T12:24:51.516Z,12.10
2018-03-24T12:27:17.724Z,12.20
2018-03-24T12:29:44.000Z,12.30
2018-03-24T12:32:10.236Z,12.50
2018-03-24T12:34:36.494Z,12.60
2018-03-24T12:37:02.731Z,12.60
2018-03-24T12:39:28.983Z,12.70
2018-03-24T12:41:55.198Z,12.60
2018-03-24T12:44:21.446Z,12.70
2018-03-24T12:46:48.342Z,13.00
2018-03-24T12:49:14.591Z,13.10
2018-03-24T12:51:40.815Z,12.90
2018-03-24T12:54:07.372Z,12.80
2018-03-24T12:56:33.602Z,12.80
2018-03-24T12:59:00.894Z,12.70
2018-03-24T13:01:27.121Z,12.90
2018-03-24T13:03:53.379Z,12.80
2018-03-24T13:06:19.652Z,12.80
2018-03-24T13:08:46.895Z,12.90
2018-03-24T13:11:13.153Z,12.90
2018-03-24T13:13:40.094Z,12.70
2018-03-24T13:16:06.367Z,12.70
2018-03-24T13:18:32.705Z,12.70
2018-03-24T13:20:59.729Z,12.70
2018-03-24T13:23:25.987Z,12.70
2018-03-24T13:25:52.217Z,12.80
2018-03-24T13:28:18.451Z,12.60
2018-03-24T13:30:44.763Z,12.50
2018-03-24T13:33:11.148Z,12.60
2018-03-24T13:35:37.414Z,12.60
2018-03-24T13:38:04.402Z,12.70
2018-03-24T13:40:30.655Z,12.60
2018-03-24T13:42:56.875Z,12.60
2018-03-24T13:45:23.858Z,12.60
2018-03-24T13:47:50.130Z,12.60
2018-03-24T13:50:16.407Z,12.70
2018-03-24T13:52:43.389Z,12.50
2018-03-24T13:55:10.381Z,12.50
2018-03-24T13:57:36.603Z,12.60
2018-03-24T14:00:02.912Z,12.50
2018-03-24T14:02:31.932Z,12.50
2018-03-24T14:04:58.983Z,12.50
2018-03-24T14:07:25.996Z,12.40
2018-03-24T14:09:52.263Z,12.40
2018-03-24T14:12:18.629Z,12.30
2018-03-24T14:14:49.660Z,12.10
2018-03-24T14:17:18.140Z,12.10
2018-03-24T14:19:44.425Z,12.20
2018-03-24T14:22:11.437Z,12.00
2018-03-24T14:24:37.679Z,12.00
2018-03-24T14:27:04.019Z,12.00
2018-03-24T14:29:34.848Z,12.00
2018-03-24T14:32:01.403Z,12.00
2018-03-24T14:34:27.711Z,11.90
2018-03-24T14:36:53.931Z,12.00
2018-03-24T14:39:20.294Z,12.00
2018-03-24T14:41:46.541Z,12.00
2018-03-24T14:44:12.829Z,11.80
2018-03-24T14:46:39.092Z,11.70
2018-03-24T14:49:05.393Z,11.60
2018-03-24T14:51:33.345Z,11.60
2018-03-24T14:53:59.617Z,11.60
2018-03-24T14:56:26.587Z,11.70
2018-03-24T14:58:52.919Z,11.70
2018-03-24T15:01:19.959Z,11.90
2018-03-24T15:03:46.329Z,11.90
2018-03-24T15:06:12.699Z,11.90
2018-03-24T15:08:38.954Z,12.00
2018-03-24T15:11:05.480Z,12.00
2018-03-24T15:13:31.857Z,11.80
2018-03-24T15:15:58.126Z,11.90
2018-03-24T15:18:24.475Z,12.00
2018-03-24T15:20:50.804Z,12.00
2018-03-24T15:23:17.052Z,12.10
2018-03-24T15:25:43.392Z,12.30
2018-03-24T15:28:09.628Z,12.30
2018-03-24T15:30:48.195Z,12.40
2018-03-24T15:33:27.476Z,12.10
2018-03-24T15:36:06.163Z,12.10
2018-03-24T15:38:32.424Z,12.10
2018-03-24T15:40:59.374Z,11.70
2018-03-24T15:43:25.628Z,11.60
2018-03-24T15:45:52.728Z,11.40
2018-03-24T15:48:19.415Z,11.40
2018-03-24T15:50:45.996Z,11.50
2018-03-24T15:53:12.986Z,11.20
2018-03-24T15:55:39.226Z,11.20
2018-03-24T15:58:05.495Z,11.10
2018-03-24T16:00:31.728Z,11.10
2018-03-24T16:02:57.986Z,11.00
2018-03-24T16:05:24.542Z,11.00
2018-03-24T16:07:50.787Z,11.10
2018-03-24T16:10:17.049Z,11.10
2018-03-24T16:12:43.302Z,11.10
2018-03-24T16:15:10.344Z,11.10
2018-03-24T16:17:36.542Z,11.10
2018-03-24T16:20:02.786Z,11.00
2018-03-24T16:22:29.031Z,11.00
2018-03-24T16:24:55.295Z,11.00
2018-03-24T16:27:21.531Z,11.00
2018-03-24T16:29:47.758Z,11.00
2018-03-24T16:32:13.992Z,10.90
2018-03-24T16:34:40.256Z,10.90
2018-03-24T16:37:06.515Z,10.90
2018-03-24T16:39:32.758Z,11.00
2018-03-24T16:41:59.042Z,11.00
2018-03-24T16:44:25.291Z,11.00
2018-03-24T16:46:51.563Z,11.10
2018-03-24T16:49:17.799Z,11.00
2018-03-24T16:51:44.088Z,11.00
2018-03-24T16:54:10.301Z,10.90
2018-03-24T16:56:36.560Z,10.90
2018-03-24T16:59:02.806Z,10.90
2018-03-24T17:01:29.038Z,10.80
2018-03-24T17:03:55.291Z,10.70
2018-03-24T17:06:21.510Z,10.60
2018-03-24T17:08:47.791Z,10.50
2018-03-24T17:11:14.768Z,10.50
2018-03-24T17:13:41.746Z,10.40
2018-03-24T17:16:08.069Z,10.40
2018-03-24T17:18:35.119Z,10.20
2018-03-24T17:21:01.366Z,10.20
2018-03-24T17:23:27.600Z,10.10
2018-03-24T17:25:53.873Z,10.10
2018-03-24T17:28:20.115Z,10.00
2018-03-24T17:30:47.126Z,9.80
2018-03-24T17:33:13.391Z,9.80
2018-03-24T17:35:40.371Z,9.80
2018-03-24T17:38:07.384Z,9.80
2018-03-24T17:40:33.607Z,9.80
2018-03-24T17:42:59.856Z,9.80
2018-03-24T17:45:26.829Z,9.80
2018-03-24T17:47:53.076Z,9.80
2018-03-24T17:50:19.288Z,9.90
2018-03-24T17:52:45.533Z,9.80
2018-03-24T17:55:11.756Z,9.80
2018-03-24T17:57:38.024Z,9.70
2018-03-24T18:00:04.331Z,9.60
2018-03-24T18:02:31.420Z,9.50
2018-03-24T18:04:57.649Z,9.50
2018-03-24T18:07:23.904Z,9.50
2018-03-24T18:09:50.113Z,9.40
2018-03-24T18:12:17.088Z,9.50
2018-03-24T18:14:44.056Z,9.40
2018-03-24T18:17:11.062Z,9.40
2018-03-24T18:19:37.307Z,9.40
2018-03-24T18:22:03.611Z,9.40
2018-03-24T18:24:29.824Z,9.40
2018-03-24T18:26:56.087Z,9.40
2018-03-24T18:29:23.056Z,9.50
2018-03-24T18:31:49.294Z,9.50
2018-03-24T18:34:15.539Z,9.40
2018-03-24T18:36:41.786Z,9.40
2018-03-24T18:39:08.024Z,9.30
2018-03-24T18:41:34.265Z,9.20
2018-03-24T18:44:00.516Z,9.20
2018-03-24T18:46:26.800Z,9.20
2018-03-24T18:48:53.051Z,9.20
2018-03-24T18:51:19.287Z,9.20
2018-03-24T18:53:45.533Z,9.20
2018-03-24T18:56:11.800Z,9.20
2018-03-24T18:58:38.758Z,9.10
2018-03-24T19:01:05.777Z,9.10
2018-03-24T19:03:32.012Z,9.10
2018-03-24T19:05:58.246Z,9.00
2018-03-24T19:08:24.496Z,9.00
2018-03-24T19:10:50.755Z,9.00
2018-03-24T19:13:17.003Z,9.00
2018-03-24T19:15:44.288Z,9.00
2018-03-24T19:18:11.299Z,8.90
2018-03-24T19:20:37.527Z,8.90
2018-03-24T19:23:03.779Z,8.90
2018-03-24T19:25:30.032Z,8.80
2018-03-24T19:27:56.285Z,8.80
2018-03-24T19:30:22.520Z,8.80
2018-03-24T19:32:48.782Z,8.70
2018-03-24T19:35:15.011Z,8.70
2018-03-24T19:37:41.280Z,8.60
2018-03-24T19:40:08.341Z,8.50
2018-03-24T19:42:34.698Z,8.40
2018-03-24T19:45:01.678Z,8.30
2018-03-24T19:47:27.918Z,8.20
2018-03-24T19:49:54.148Z,8.20
2018-03-24T19:52:21.175Z,8.10
2018-03-24T19:54:47.531Z,8.10
2018-03-24T19:57:13.776Z,8.10
2018-03-24T19:59:40.005Z,8.10
2018-03-24T20:02:06.264Z,8.10
2018-03-24T20:04:32.508Z,8.00
2018-03-24T20:07:01.367Z,8.00
2018-03-24T20:09:27.640Z,8.00
2018-03-24T20:11:54.008Z,8.00
2018-03-24T20:14:20.260Z,7.90
2018-03-24T20:16:47.295Z,7.80
2018-03-24T20:19:13.538Z,7.80
2018-03-24T20:21:39.834Z,7.80
2018-03-24T20:24:06.100Z,7.70
2018-03-24T20:26:33.524Z,7.60
2018-03-24T20:28:59.800Z,7.60
2018-03-24T20:31:26.248Z,7.50
2018-03-24T20:33:52.506Z,7.40
2018-03-24T20:36:18.857Z,7.40
2018-03-24T20:38:45.137Z,7.30
2018-03-24T20:41:12.145Z,7.30
2018-03-24T20:43:38.406Z,7.30
2018-03-24T20:46:04.997Z,7.30
2018-03-24T20:48:32.035Z,7.20
2018-03-24T20:50:58.313Z,7.20
2018-03-24T20:53:25.324Z,6.90
2018-03-24T20:55:51.608Z,6.90
2018-03-24T20:58:18.629Z,6.70
2018-03-24T21:00:44.893Z,6.70
2018-03-24T21:03:11.196Z,6.60
2018-03-24T21:05:37.485Z,6.60
2018-03-24T21:08:04.559Z,6.50
2018-03-24T21:10:31.623Z,6.50
2018-03-24T21:12:58.751Z,6.60
2018-03-24T21:15:25.095Z,6.50
2018-03-24T21:17:51.456Z,6.60
2018-03-24T21:20:17.807Z,6.50
2018-03-24T21:22:44.894Z,6.50
2018-03-24T21:25:11.167Z,6.50
2018-03-24T21:27:37.428Z,6.50
2018-03-24T21:30:03.727Z,6.50
2018-03-24T21:32:30.091Z,6.50
2018-03-24T21:34:57.059Z,6.50
2018-03-24T21:37:23.369Z,6.50
2018-03-24T21:39:49.702Z,6.50
2018-03-24T21:42:16.809Z,6.40
2018-03-24T21:44:43.056Z,6.40
2018-03-24T21:47:09.349Z,6.40
2018-03-24T21:49:36.347Z,6.30
2018-03-24T21:52:02.644Z,6.20
2018-03-24T21:54:29.006Z,6.10
2018-03-24T21:56:56.148Z,5.90
2018-03-24T21:59:22.626Z,5.80
2018-03-24T22:01:48.981Z,5.80
2018-03-24T22:04:16.282Z,5.70
2018-03-24T22:06:42.579Z,5.70
2018-03-24T22:09:09.613Z,5.50
2018-03-24T22:11:35.982Z,5.50
2018-03-24T22:14:02.232Z,5.40
2018-03-24T22:16:28.512Z,5.30
2018-03-24T22:18:54.924Z,5.20
2018-03-24T22:21:21.299Z,5.20
2018-03-24T22:23:47.571Z,5.10
2018-03-24T22:26:14.700Z,5.00
2018-03-24T22:28:41.001Z,4.90
2018-03-24T22:31:08.263Z,4.80
2018-03-24T22:33:34.587Z,4.80
2018-03-24T22:36:00.848Z,4.70
2018-03-24T22:38:27.100Z,4.70
2018-03-24T22:40:54.210Z,4.60
2018-03-24T22:43:20.476Z,4.60
2018-03-24T22:45:46.735Z,4.50
2018-03-24T22:48:13.361Z,4.40
2018-03-24T22:50:39.851Z,4.30
2018-03-24T22:53:06.955Z,4.10
2018-03-24T22:55:33.339Z,4.10
2018-03-24T22:58:00.727Z,4.10
2018-03-24T23:00:27.289Z,4.00
2018-03-24T23:02:54.494Z,4.00
2018-03-24T23:05:20.875Z,4.00
2018-03-24T23:07:47.216Z,3.90
2018-03-24T23:10:13.725Z,3.90
2018-03-24T23:12:40.163Z,3.90
2018-03-24T23:15:06.596Z,3.80
2018-03-24T23:17:32.990Z,3.80
2018-03-24T23:20:00.492Z,3.80
2018-03-24T23:22:26.881Z,3.80
2018-03-24T23:24:53.259Z,3.80
2018-03-24T23:27:20.595Z,3.70
2018-03-24T23:29:46.936Z,3.80
2018-03-24T23:32:13.274Z,3.80
2018-03-24T23:34:40.376Z,3.70
2018-03-24T23:37:06.689Z,3.70
2018-03-24T23:39:33.052Z,3.80
2018-03-24T23:41:59.439Z,3.80
2018-03-24T23:44:26.254Z,3.80
2018-03-24T23:46:52.565Z,3.80
2018-03-24T23:49:18.995Z,3.80
2018-03-24T23:51:46.066Z,3.80
2018-03-24T23:54:13.165Z,3.70
2018-03-24T23:56:39.459Z,3.70
2018-03-24T23:59:06.568Z,3.70
